sensor_id;sensor_type;location;lat;lon;timestamp;P1;durP1;ratioP1;P2;durP2;ratioP2
2930;SDS011;1475;51.454;7.150;2022-09-20T00:02:18;19.27;;;7.72;;
2930;SDS011;1475;51.454;7.150;2022-09-20T00:04:46;17.33;;;6.90;;
2930;SDS011;1475;51.454;7.150;2022-09-20T00:07:14;12.55;;;6.70;;
2930;SDS011;1475;51.454;7.150;2022-09-20T00:09:41;12.38;;;6.30;;
2930;SDS011;1475;51.454;7.150;2022-09-20T00:12:08;15.23;;;6.93;;
2930;SDS011;1475;51.454;7.150;2022-09-20T00:14:35;13.88;;;6.18;;
2930;SDS011;1475;51.454;7.150;2022-09-20T00:17:01;11.55;;;5.68;;
2930;SDS011;1475;51.454;7.150;2022-09-20T00:19:28;15.07;;;6.32;;
2930;SDS011;1475;51.454;7.150;2022-09-20T00:21:55;12.23;;;6.27;;
2930;SDS011;1475;51.454;7.150;2022-09-20T00:24:23;11.82;;;6.43;;
2930;SDS011;1475;51.454;7.150;2022-09-20T00:26:50;14.60;;;7.22;;
2930;SDS011;1475;51.454;7.150;2022-09-20T00:29:17;13.50;;;6.13;;
2930;SDS011;1475;51.454;7.150;2022-09-20T00:31:43;16.42;;;7.15;;
2930;SDS011;1475;51.454;7.150;2022-09-20T00:34:11;15.40;;;6.65;;
2930;SDS011;1475;51.454;7.150;2022-09-20T00:36:55;15.32;;;6.90;;
2930;SDS011;1475;51.454;7.150;2022-09-20T00:39:23;13.70;;;6.82;;
2930;SDS011;1475;51.454;7.150;2022-09-20T00:41:50;13.63;;;7.45;;
2930;SDS011;1475;51.454;7.150;2022-09-20T00:47:07;19.52;;;6.55;;
2930;SDS011;1475;51.454;7.150;2022-09-20T00:49:37;16.67;;;7.05;;
2930;SDS011;1475;51.454;7.150;2022-09-20T00:52:04;13.83;;;7.37;;
2930;SDS011;1475;51.454;7.150;2022-09-20T00:54:32;16.50;;;7.78;;
2930;SDS011;1475;51.454;7.150;2022-09-20T00:56:59;15.18;;;7.47;;
2930;SDS011;1475;51.454;7.150;2022-09-20T00:59:27;17.30;;;7.70;;
2930;SDS011;1475;51.454;7.150;2022-09-20T01:01:57;14.32;;;7.22;;
2930;SDS011;1475;51.454;7.150;2022-09-20T01:04:28;12.57;;;7.00;;
2930;SDS011;1475;51.454;7.150;2022-09-20T01:06:56;13.93;;;6.82;;
2930;SDS011;1475;51.454;7.150;2022-09-20T01:09:25;11.65;;;7.15;;
2930;SDS011;1475;51.454;7.150;2022-09-20T01:11:54;17.02;;;7.70;;
2930;SDS011;1475;51.454;7.150;2022-09-20T01:14:22;12.88;;;7.45;;
2930;SDS011;1475;51.454;7.150;2022-09-20T01:16:51;17.75;;;6.78;;
2930;SDS011;1475;51.454;7.150;2022-09-20T01:19:22;15.35;;;7.20;;
2930;SDS011;1475;51.454;7.150;2022-09-20T01:21:55;17.45;;;8.50;;
2930;SDS011;1475;51.454;7.150;2022-09-20T01:24:22;16.40;;;8.10;;
2930;SDS011;1475;51.454;7.150;2022-09-20T01:27:02;16.95;;;7.38;;
2930;SDS011;1475;51.454;7.150;2022-09-20T01:29:44;12.43;;;6.55;;
2930;SDS011;1475;51.454;7.150;2022-09-20T01:32:19;14.45;;;6.82;;
2930;SDS011;1475;51.454;7.150;2022-09-20T01:34:53;17.15;;;7.28;;
2930;SDS011;1475;51.454;7.150;2022-09-20T01:37:23;15.13;;;7.27;;
2930;SDS011;1475;51.454;7.150;2022-09-20T01:39:53;16.65;;;8.45;;
2930;SDS011;1475;51.454;7.150;2022-09-20T01:42:29;11.70;;;6.63;;
2930;SDS011;1475;51.454;7.150;2022-09-20T01:45:00;15.10;;;6.93;;
2930;SDS011;1475;51.454;7.150;2022-09-20T01:47:34;15.82;;;7.57;;
2930;SDS011;1475;51.454;7.150;2022-09-20T01:50:10;14.27;;;6.85;;
2930;SDS011;1475;51.454;7.150;2022-09-20T01:52:50;15.15;;;6.78;;
2930;SDS011;1475;51.454;7.150;2022-09-20T01:58:57;11.98;;;7.03;;
2930;SDS011;1475;51.454;7.150;2022-09-20T02:02:06;15.40;;;8.48;;
2930;SDS011;1475;51.454;7.150;2022-09-20T02:11:03;13.75;;;7.13;;
2930;SDS011;1475;51.454;7.150;2022-09-20T02:13:49;17.90;;;7.78;;
2930;SDS011;1475;51.454;7.150;2022-09-20T02:16:30;23.83;;;8.23;;
2930;SDS011;1475;51.454;7.150;2022-09-20T02:19:23;14.60;;;7.60;;
2930;SDS011;1475;51.454;7.150;2022-09-20T02:25:00;18.00;;;8.23;;
2930;SDS011;1475;51.454;7.150;2022-09-20T02:27:33;17.05;;;8.95;;
2930;SDS011;1475;51.454;7.150;2022-09-20T02:30:12;14.88;;;8.65;;
2930;SDS011;1475;51.454;7.150;2022-09-20T02:36:04;15.52;;;9.15;;
2930;SDS011;1475;51.454;7.150;2022-09-20T02:38:48;16.70;;;8.18;;
2930;SDS011;1475;51.454;7.150;2022-09-20T02:41:32;13.93;;;7.90;;
2930;SDS011;1475;51.454;7.150;2022-09-20T02:44:27;15.35;;;9.40;;
2930;SDS011;1475;51.454;7.150;2022-09-20T02:47:26;17.15;;;9.20;;
2930;SDS011;1475;51.454;7.150;2022-09-20T02:50:10;15.15;;;8.40;;
2930;SDS011;1475;51.454;7.150;2022-09-20T02:52:50;20.75;;;9.52;;
2930;SDS011;1475;51.454;7.150;2022-09-20T02:55:31;18.75;;;10.20;;
2930;SDS011;1475;51.454;7.150;2022-09-20T02:58:09;16.63;;;9.55;;
2930;SDS011;1475;51.454;7.150;2022-09-20T03:00:52;16.75;;;9.25;;
2930;SDS011;1475;51.454;7.150;2022-09-20T03:03:28;17.48;;;10.73;;
2930;SDS011;1475;51.454;7.150;2022-09-20T03:06:00;13.85;;;8.85;;
2930;SDS011;1475;51.454;7.150;2022-09-20T03:08:37;21.75;;;10.23;;
2930;SDS011;1475;51.454;7.150;2022-09-20T03:11:12;15.73;;;8.50;;
2930;SDS011;1475;51.454;7.150;2022-09-20T03:13:54;13.10;;;7.88;;
2930;SDS011;1475;51.454;7.150;2022-09-20T03:16:31;22.48;;;9.32;;
2930;SDS011;1475;51.454;7.150;2022-09-20T03:19:08;18.88;;;10.23;;
2930;SDS011;1475;51.454;7.150;2022-09-20T03:21:45;20.33;;;10.23;;
2930;SDS011;1475;51.454;7.150;2022-09-20T03:24:27;20.48;;;9.52;;
2930;SDS011;1475;51.454;7.150;2022-09-20T03:27:03;14.50;;;10.50;;
2930;SDS011;1475;51.454;7.150;2022-09-20T03:29:39;17.38;;;10.20;;
2930;SDS011;1475;51.454;7.150;2022-09-20T03:32:23;16.63;;;10.38;;
2930;SDS011;1475;51.454;7.150;2022-09-20T03:35:03;21.05;;;10.18;;
2930;SDS011;1475;51.454;7.150;2022-09-20T03:37:49;16.25;;;10.43;;
2930;SDS011;1475;51.454;7.150;2022-09-20T03:40:40;18.88;;;11.48;;
2930;SDS011;1475;51.454;7.150;2022-09-20T03:43:24;19.77;;;10.70;;
2930;SDS011;1475;51.454;7.150;2022-09-20T03:46:05;22.08;;;11.07;;
2930;SDS011;1475;51.454;7.150;2022-09-20T03:48:58;18.67;;;10.67;;
2930;SDS011;1475;51.454;7.150;2022-09-20T03:51:52;21.63;;;11.45;;
2930;SDS011;1475;51.454;7.150;2022-09-20T03:54:41;22.10;;;11.30;;
2930;SDS011;1475;51.454;7.150;2022-09-20T04:00:23;21.85;;;11.20;;
2930;SDS011;1475;51.454;7.150;2022-09-20T04:05:49;20.45;;;11.90;;
2930;SDS011;1475;51.454;7.150;2022-09-20T04:08:28;19.25;;;11.23;;
2930;SDS011;1475;51.454;7.150;2022-09-20T04:11:09;22.77;;;11.80;;
2930;SDS011;1475;51.454;7.150;2022-09-20T04:13:46;21.70;;;11.70;;
2930;SDS011;1475;51.454;7.150;2022-09-20T04:16:22;20.48;;;11.35;;
2930;SDS011;1475;51.454;7.150;2022-09-20T04:18:57;25.98;;;12.77;;
2930;SDS011;1475;51.454;7.150;2022-09-20T04:21:29;21.30;;;13.32;;
2930;SDS011;1475;51.454;7.150;2022-09-20T04:24:03;24.67;;;12.30;;
2930;SDS011;1475;51.454;7.150;2022-09-20T04:26:48;23.25;;;12.50;;
2930;SDS011;1475;51.454;7.150;2022-09-20T04:29:26;21.92;;;13.30;;
2930;SDS011;1475;51.454;7.150;2022-09-20T04:32:01;31.10;;;12.90;;
2930;SDS011;1475;51.454;7.150;2022-09-20T04:34:37;21.75;;;12.85;;
2930;SDS011;1475;51.454;7.150;2022-09-20T04:37:26;33.47;;;13.00;;
2930;SDS011;1475;51.454;7.150;2022-09-20T04:40:00;23.55;;;13.63;;
2930;SDS011;1475;51.454;7.150;2022-09-20T04:46:10;19.10;;;13.07;;
2930;SDS011;1475;51.454;7.150;2022-09-20T04:52:16;24.25;;;12.55;;
2930;SDS011;1475;51.454;7.150;2022-09-20T04:55:20;20.90;;;11.70;;
2930;SDS011;1475;51.454;7.150;2022-09-20T04:58:10;25.20;;;13.05;;
2930;SDS011;1475;51.454;7.150;2022-09-20T05:01:04;21.73;;;12.80;;
2930;SDS011;1475;51.454;7.150;2022-09-20T05:03:58;21.80;;;11.13;;
2930;SDS011;1475;51.454;7.150;2022-09-20T05:06:59;22.40;;;11.80;;
2930;SDS011;1475;51.454;7.150;2022-09-20T05:12:34;20.33;;;11.63;;
2930;SDS011;1475;51.454;7.150;2022-09-20T05:15:31;22.40;;;11.95;;
2930;SDS011;1475;51.454;7.150;2022-09-20T05:18:21;22.52;;;11.38;;
2930;SDS011;1475;51.454;7.150;2022-09-20T05:21:09;20.00;;;12.20;;
2930;SDS011;1475;51.454;7.150;2022-09-20T05:23:51;17.30;;;11.60;;
2930;SDS011;1475;51.454;7.150;2022-09-20T05:26:30;22.52;;;13.00;;
2930;SDS011;1475;51.454;7.150;2022-09-20T05:29:06;23.17;;;11.55;;
2930;SDS011;1475;51.454;7.150;2022-09-20T05:31:40;18.98;;;11.02;;
2930;SDS011;1475;51.454;7.150;2022-09-20T05:34:15;18.42;;;10.80;;
2930;SDS011;1475;51.454;7.150;2022-09-20T05:36:52;17.92;;;10.13;;
2930;SDS011;1475;51.454;7.150;2022-09-20T05:39:30;18.30;;;11.68;;
2930;SDS011;1475;51.454;7.150;2022-09-20T05:42:04;17.65;;;10.95;;
2930;SDS011;1475;51.454;7.150;2022-09-20T05:44:46;16.52;;;10.90;;
2930;SDS011;1475;51.454;7.150;2022-09-20T05:47:22;21.38;;;11.50;;
2930;SDS011;1475;51.454;7.150;2022-09-20T05:50:07;15.95;;;10.80;;
2930;SDS011;1475;51.454;7.150;2022-09-20T05:52:47;16.23;;;10.77;;
2930;SDS011;1475;51.454;7.150;2022-09-20T05:55:30;19.10;;;11.63;;
2930;SDS011;1475;51.454;7.150;2022-09-20T05:58:27;16.57;;;10.10;;
2930;SDS011;1475;51.454;7.150;2022-09-20T06:01:10;13.50;;;9.60;;
2930;SDS011;1475;51.454;7.150;2022-09-20T06:03:45;23.08;;;10.68;;
2930;SDS011;1475;51.454;7.150;2022-09-20T06:06:21;17.40;;;9.88;;
2930;SDS011;1475;51.454;7.150;2022-09-20T06:09:03;14.25;;;8.90;;
2930;SDS011;1475;51.454;7.150;2022-09-20T06:14:37;17.92;;;9.57;;
2930;SDS011;1475;51.454;7.150;2022-09-20T06:17:17;18.30;;;9.20;;
2930;SDS011;1475;51.454;7.150;2022-09-20T06:19:51;19.90;;;10.45;;
2930;SDS011;1475;51.454;7.150;2022-09-20T06:22:30;15.52;;;9.30;;
2930;SDS011;1475;51.454;7.150;2022-09-20T06:25:00;16.80;;;9.70;;
2930;SDS011;1475;51.454;7.150;2022-09-20T06:27:32;16.93;;;10.63;;
2930;SDS011;1475;51.454;7.150;2022-09-20T06:30:03;17.48;;;9.85;;
2930;SDS011;1475;51.454;7.150;2022-09-20T06:32:33;18.10;;;10.77;;
2930;SDS011;1475;51.454;7.150;2022-09-20T06:35:00;16.77;;;10.10;;
2930;SDS011;1475;51.454;7.150;2022-09-20T06:37:35;16.33;;;9.38;;
2930;SDS011;1475;51.454;7.150;2022-09-20T06:40:30;17.80;;;10.32;;
2930;SDS011;1475;51.454;7.150;2022-09-20T06:43:20;22.02;;;10.85;;
2930;SDS011;1475;51.454;7.150;2022-09-20T06:45:46;16.47;;;10.40;;
2930;SDS011;1475;51.454;7.150;2022-09-20T06:48:13;19.65;;;10.65;;
2930;SDS011;1475;51.454;7.150;2022-09-20T06:50:40;20.33;;;11.38;;
2930;SDS011;1475;51.454;7.150;2022-09-20T06:53:11;16.08;;;10.35;;
2930;SDS011;1475;51.454;7.150;2022-09-20T06:55:41;18.17;;;11.38;;
2930;SDS011;1475;51.454;7.150;2022-09-20T06:58:09;18.08;;;10.85;;
2930;SDS011;1475;51.454;7.150;2022-09-20T07:00:36;13.45;;;9.73;;
2930;SDS011;1475;51.454;7.150;2022-09-20T07:03:05;19.80;;;10.43;;
2930;SDS011;1475;51.454;7.150;2022-09-20T07:05:32;15.63;;;9.90;;
2930;SDS011;1475;51.454;7.150;2022-09-20T07:08:00;19.33;;;10.95;;
2930;SDS011;1475;51.454;7.150;2022-09-20T07:10:28;15.52;;;10.05;;
2930;SDS011;1475;51.454;7.150;2022-09-20T07:12:55;13.30;;;9.15;;
2930;SDS011;1475;51.454;7.150;2022-09-20T07:15:24;14.65;;;10.18;;
2930;SDS011;1475;51.454;7.150;2022-09-20T07:17:52;18.50;;;9.93;;
2930;SDS011;1475;51.454;7.150;2022-09-20T07:20:19;13.10;;;9.15;;
2930;SDS011;1475;51.454;7.150;2022-09-20T07:22:46;18.50;;;10.25;;
2930;SDS011;1475;51.454;7.150;2022-09-20T07:25:13;11.40;;;8.75;;
2930;SDS011;1475;51.454;7.150;2022-09-20T07:27:43;21.92;;;10.75;;
2930;SDS011;1475;51.454;7.150;2022-09-20T07:30:11;15.45;;;9.35;;
2930;SDS011;1475;51.454;7.150;2022-09-20T07:32:38;15.35;;;9.90;;
2930;SDS011;1475;51.454;7.150;2022-09-20T07:35:06;13.93;;;8.40;;
2930;SDS011;1475;51.454;7.150;2022-09-20T07:37:33;12.95;;;7.95;;
2930;SDS011;1475;51.454;7.150;2022-09-20T07:40:00;11.88;;;7.65;;
2930;SDS011;1475;51.454;7.150;2022-09-20T07:42:28;17.42;;;7.97;;
2930;SDS011;1475;51.454;7.150;2022-09-20T07:44:56;18.95;;;9.85;;
2930;SDS011;1475;51.454;7.150;2022-09-20T07:47:23;13.02;;;8.20;;
2930;SDS011;1475;51.454;7.150;2022-09-20T07:49:50;14.73;;;8.68;;
2930;SDS011;1475;51.454;7.150;2022-09-20T07:52:17;14.55;;;7.57;;
2930;SDS011;1475;51.454;7.150;2022-09-20T07:54:44;14.05;;;6.93;;
2930;SDS011;1475;51.454;7.150;2022-09-20T07:57:11;14.07;;;8.60;;
2930;SDS011;1475;51.454;7.150;2022-09-20T07:59:38;16.35;;;7.65;;
2930;SDS011;1475;51.454;7.150;2022-09-20T08:02:06;12.50;;;7.60;;
2930;SDS011;1475;51.454;7.150;2022-09-20T08:04:35;9.35;;;5.80;;
2930;SDS011;1475;51.454;7.150;2022-09-20T08:07:02;13.30;;;6.63;;
2930;SDS011;1475;51.454;7.150;2022-09-20T08:09:28;8.63;;;6.30;;
2930;SDS011;1475;51.454;7.150;2022-09-20T08:11:55;13.80;;;6.93;;
2930;SDS011;1475;51.454;7.150;2022-09-20T08:14:22;12.90;;;6.30;;
2930;SDS011;1475;51.454;7.150;2022-09-20T08:16:49;12.43;;;6.00;;
2930;SDS011;1475;51.454;7.150;2022-09-20T08:19:18;11.07;;;6.38;;
2930;SDS011;1475;51.454;7.150;2022-09-20T08:21:47;15.05;;;6.57;;
2930;SDS011;1475;51.454;7.150;2022-09-20T08:24:15;11.07;;;6.40;;
2930;SDS011;1475;51.454;7.150;2022-09-20T08:26:43;14.70;;;6.00;;
2930;SDS011;1475;51.454;7.150;2022-09-20T08:29:10;11.45;;;5.25;;
2930;SDS011;1475;51.454;7.150;2022-09-20T08:31:38;9.43;;;5.72;;
2930;SDS011;1475;51.454;7.150;2022-09-20T08:34:06;10.65;;;5.47;;
2930;SDS011;1475;51.454;7.150;2022-09-20T08:36:37;11.60;;;5.03;;
2930;SDS011;1475;51.454;7.150;2022-09-20T08:39:05;9.20;;;4.60;;
2930;SDS011;1475;51.454;7.150;2022-09-20T08:41:32;10.52;;;4.70;;
2930;SDS011;1475;51.454;7.150;2022-09-20T08:44:04;11.60;;;5.53;;
2930;SDS011;1475;51.454;7.150;2022-09-20T08:46:37;9.38;;;4.63;;
2930;SDS011;1475;51.454;7.150;2022-09-20T08:49:08;9.80;;;4.70;;
2930;SDS011;1475;51.454;7.150;2022-09-20T08:51:43;11.57;;;4.65;;
2930;SDS011;1475;51.454;7.150;2022-09-20T08:54:14;12.32;;;4.28;;
2930;SDS011;1475;51.454;7.150;2022-09-20T08:56:42;8.32;;;3.50;;
2930;SDS011;1475;51.454;7.150;2022-09-20T08:59:13;7.90;;;3.10;;
2930;SDS011;1475;51.454;7.150;2022-09-20T09:01:42;7.28;;;3.83;;
2930;SDS011;1475;51.454;7.150;2022-09-20T09:04:11;8.38;;;3.13;;
2930;SDS011;1475;51.454;7.150;2022-09-20T09:06:40;8.35;;;3.08;;
2930;SDS011;1475;51.454;7.150;2022-09-20T09:09:11;8.20;;;2.75;;
2930;SDS011;1475;51.454;7.150;2022-09-20T09:11:43;6.90;;;3.55;;
2930;SDS011;1475;51.454;7.150;2022-09-20T09:14:12;4.97;;;2.53;;
2930;SDS011;1475;51.454;7.150;2022-09-20T09:17:04;7.50;;;3.45;;
2930;SDS011;1475;51.454;7.150;2022-09-20T09:19:41;5.57;;;2.92;;
2930;SDS011;1475;51.454;7.150;2022-09-20T09:22:10;9.00;;;3.50;;
2930;SDS011;1475;51.454;7.150;2022-09-20T09:24:44;7.10;;;3.40;;
2930;SDS011;1475;51.454;7.150;2022-09-20T09:27:13;11.18;;;2.97;;
2930;SDS011;1475;51.454;7.150;2022-09-20T09:29:47;7.22;;;2.42;;
2930;SDS011;1475;51.454;7.150;2022-09-20T09:32:20;6.20;;;2.97;;
2930;SDS011;1475;51.454;7.150;2022-09-20T09:34:48;8.70;;;2.70;;
2930;SDS011;1475;51.454;7.150;2022-09-20T09:37:23;6.45;;;3.20;;
2930;SDS011;1475;51.454;7.150;2022-09-20T09:40:07;5.22;;;2.38;;
2930;SDS011;1475;51.454;7.150;2022-09-20T09:42:46;8.50;;;2.17;;
2930;SDS011;1475;51.454;7.150;2022-09-20T09:45:22;5.57;;;2.20;;
2930;SDS011;1475;51.454;7.150;2022-09-20T09:47:54;5.78;;;2.72;;
2930;SDS011;1475;51.454;7.150;2022-09-20T09:50:23;9.65;;;2.97;;
2930;SDS011;1475;51.454;7.150;2022-09-20T09:53:04;6.30;;;2.75;;
2930;SDS011;1475;51.454;7.150;2022-09-20T09:55:46;5.97;;;2.70;;
2930;SDS011;1475;51.454;7.150;2022-09-20T09:58:30;4.38;;;2.25;;
2930;SDS011;1475;51.454;7.150;2022-09-20T10:01:09;10.13;;;3.60;;
2930;SDS011;1475;51.454;7.150;2022-09-20T10:03:50;9.13;;;3.80;;
2930;SDS011;1475;51.454;7.150;2022-09-20T10:06:25;8.87;;;2.90;;
2930;SDS011;1475;51.454;7.150;2022-09-20T10:08:59;6.00;;;3.20;;
2930;SDS011;1475;51.454;7.150;2022-09-20T10:11:38;9.25;;;3.45;;
2930;SDS011;1475;51.454;7.150;2022-09-20T10:14:21;7.80;;;3.53;;
2930;SDS011;1475;51.454;7.150;2022-09-20T10:17:06;6.37;;;3.07;;
2930;SDS011;1475;51.454;7.150;2022-09-20T10:19:55;10.10;;;3.75;;
2930;SDS011;1475;51.454;7.150;2022-09-20T10:22:33;9.02;;;3.30;;
2930;SDS011;1475;51.454;7.150;2022-09-20T10:25:13;8.50;;;2.90;;
2930;SDS011;1475;51.454;7.150;2022-09-20T10:27:52;9.13;;;3.60;;
2930;SDS011;1475;51.454;7.150;2022-09-20T10:30:29;5.15;;;2.60;;
2930;SDS011;1475;51.454;7.150;2022-09-20T10:33:08;7.03;;;2.90;;
2930;SDS011;1475;51.454;7.150;2022-09-20T10:35:50;10.50;;;3.50;;
2930;SDS011;1475;51.454;7.150;2022-09-20T10:38:27;7.60;;;3.35;;
2930;SDS011;1475;51.454;7.150;2022-09-20T10:41:07;6.05;;;2.60;;
2930;SDS011;1475;51.454;7.150;2022-09-20T10:44:09;11.93;;;2.58;;
2930;SDS011;1475;51.454;7.150;2022-09-20T10:46:45;6.68;;;2.60;;
2930;SDS011;1475;51.454;7.150;2022-09-20T10:49:26;5.93;;;2.47;;
2930;SDS011;1475;51.454;7.150;2022-09-20T10:52:06;6.40;;;2.15;;
2930;SDS011;1475;51.454;7.150;2022-09-20T10:54:45;6.00;;;2.22;;
2930;SDS011;1475;51.454;7.150;2022-09-20T10:57:40;7.70;;;2.00;;
2930;SDS011;1475;51.454;7.150;2022-09-20T11:00:32;5.50;;;2.25;;
2930;SDS011;1475;51.454;7.150;2022-09-20T11:03:10;7.07;;;2.00;;
2930;SDS011;1475;51.454;7.150;2022-09-20T11:05:53;6.43;;;2.67;;
2930;SDS011;1475;51.454;7.150;2022-09-20T11:08:27;5.40;;;1.85;;
2930;SDS011;1475;51.454;7.150;2022-09-20T11:10:58;4.32;;;2.40;;
2930;SDS011;1475;51.454;7.150;2022-09-20T11:13:32;4.57;;;1.70;;
2930;SDS011;1475;51.454;7.150;2022-09-20T11:16:07;4.20;;;2.10;;
2930;SDS011;1475;51.454;7.150;2022-09-20T11:18:40;3.90;;;1.90;;
2930;SDS011;1475;51.454;7.150;2022-09-20T11:21:13;5.60;;;1.83;;
2930;SDS011;1475;51.454;7.150;2022-09-20T11:23:46;4.70;;;1.80;;
2930;SDS011;1475;51.454;7.150;2022-09-20T11:26:18;9.45;;;2.20;;
2930;SDS011;1475;51.454;7.150;2022-09-20T11:28:50;5.63;;;2.67;;
2930;SDS011;1475;51.454;7.150;2022-09-20T11:31:23;5.80;;;1.90;;
2930;SDS011;1475;51.454;7.150;2022-09-20T11:33:55;5.00;;;2.30;;
2930;SDS011;1475;51.454;7.150;2022-09-20T11:36:26;6.43;;;2.10;;
2930;SDS011;1475;51.454;7.150;2022-09-20T11:39:03;7.22;;;2.00;;
2930;SDS011;1475;51.454;7.150;2022-09-20T11:41:36;6.90;;;2.67;;
2930;SDS011;1475;51.454;7.150;2022-09-20T11:44:05;8.07;;;2.60;;
2930;SDS011;1475;51.454;7.150;2022-09-20T11:46:39;4.75;;;2.10;;
2930;SDS011;1475;51.454;7.150;2022-09-20T11:49:13;5.28;;;2.20;;
2930;SDS011;1475;51.454;7.150;2022-09-20T11:54:45;7.18;;;1.90;;
2930;SDS011;1475;51.454;7.150;2022-09-20T11:57:34;5.15;;;2.30;;
2930;SDS011;1475;51.454;7.150;2022-09-20T12:00:03;5.75;;;2.13;;
2930;SDS011;1475;51.454;7.150;2022-09-20T12:02:34;3.80;;;2.00;;
2930;SDS011;1475;51.454;7.150;2022-09-20T12:05:05;5.15;;;2.25;;
2930;SDS011;1475;51.454;7.150;2022-09-20T12:07:51;6.97;;;2.15;;
2930;SDS011;1475;51.454;7.150;2022-09-20T12:10:21;5.05;;;2.10;;
2930;SDS011;1475;51.454;7.150;2022-09-20T12:12:54;5.40;;;2.30;;
2930;SDS011;1475;51.454;7.150;2022-09-20T12:15:23;5.35;;;2.10;;
2930;SDS011;1475;51.454;7.150;2022-09-20T12:21:07;8.25;;;2.63;;
2930;SDS011;1475;51.454;7.150;2022-09-20T12:23:42;6.40;;;2.88;;
2930;SDS011;1475;51.454;7.150;2022-09-20T12:32:39;4.88;;;2.00;;
2930;SDS011;1475;51.454;7.150;2022-09-20T12:38:28;3.28;;;1.70;;
2930;SDS011;1475;51.454;7.150;2022-09-20T12:40:58;4.95;;;2.20;;
2930;SDS011;1475;51.454;7.150;2022-09-20T12:43:26;5.50;;;1.70;;
2930;SDS011;1475;51.454;7.150;2022-09-20T12:45:55;5.35;;;1.85;;
2930;SDS011;1475;51.454;7.150;2022-09-20T12:48:23;5.80;;;2.10;;
2930;SDS011;1475;51.454;7.150;2022-09-20T12:50:59;5.55;;;2.22;;
2930;SDS011;1475;51.454;7.150;2022-09-20T12:53:59;6.60;;;1.83;;
2930;SDS011;1475;51.454;7.150;2022-09-20T12:56:29;3.50;;;1.40;;
2930;SDS011;1475;51.454;7.150;2022-09-20T12:59:00;6.60;;;1.80;;
2930;SDS011;1475;51.454;7.150;2022-09-20T13:01:31;7.57;;;2.30;;
2930;SDS011;1475;51.454;7.150;2022-09-20T13:10:25;4.28;;;1.60;;
2930;SDS011;1475;51.454;7.150;2022-09-20T13:15:49;4.43;;;1.50;;
2930;SDS011;1475;51.454;7.150;2022-09-20T13:18:18;5.93;;;1.83;;
2930;SDS011;1475;51.454;7.150;2022-09-20T13:20:46;5.38;;;1.70;;
2930;SDS011;1475;51.454;7.150;2022-09-20T13:23:17;3.25;;;1.40;;
2930;SDS011;1475;51.454;7.150;2022-09-20T13:25:48;4.07;;;1.45;;
2930;SDS011;1475;51.454;7.150;2022-09-20T13:28:18;2.38;;;1.15;;
2930;SDS011;1475;51.454;7.150;2022-09-20T13:33:47;3.65;;;1.38;;
2930;SDS011;1475;51.454;7.150;2022-09-20T13:36:14;4.97;;;1.90;;
2930;SDS011;1475;51.454;7.150;2022-09-20T13:38:48;2.97;;;1.27;;
2930;SDS011;1475;51.454;7.150;2022-09-20T13:41:16;4.82;;;1.98;;
2930;SDS011;1475;51.454;7.150;2022-09-20T13:43:43;3.50;;;1.70;;
2930;SDS011;1475;51.454;7.150;2022-09-20T13:46:13;3.28;;;1.27;;
2930;SDS011;1475;51.454;7.150;2022-09-20T13:48:42;3.20;;;2.05;;
2930;SDS011;1475;51.454;7.150;2022-09-20T13:51:15;4.95;;;1.58;;
2930;SDS011;1475;51.454;7.150;2022-09-20T13:53:43;2.83;;;1.23;;
2930;SDS011;1475;51.454;7.150;2022-09-20T13:56:15;4.25;;;1.58;;
2930;SDS011;1475;51.454;7.150;2022-09-20T13:58:46;2.90;;;1.50;;
2930;SDS011;1475;51.454;7.150;2022-09-20T14:01:26;2.20;;;1.30;;
2930;SDS011;1475;51.454;7.150;2022-09-20T14:03:55;2.42;;;1.20;;
2930;SDS011;1475;51.454;7.150;2022-09-20T14:06:27;5.10;;;2.03;;
2930;SDS011;1475;51.454;7.150;2022-09-20T14:08:54;5.10;;;1.73;;
2930;SDS011;1475;51.454;7.150;2022-09-20T14:11:25;3.30;;;1.30;;
2930;SDS011;1475;51.454;7.150;2022-09-20T14:13:55;3.47;;;1.80;;
2930;SDS011;1475;51.454;7.150;2022-09-20T14:16:27;3.23;;;1.40;;
2930;SDS011;1475;51.454;7.150;2022-09-20T14:18:56;3.35;;;1.23;;
2930;SDS011;1475;51.454;7.150;2022-09-20T14:21:24;3.35;;;1.33;;
2930;SDS011;1475;51.454;7.150;2022-09-20T14:23:54;3.10;;;1.52;;
2930;SDS011;1475;51.454;7.150;2022-09-20T14:26:26;3.03;;;1.40;;
2930;SDS011;1475;51.454;7.150;2022-09-20T14:28:58;4.10;;;1.67;;
2930;SDS011;1475;51.454;7.150;2022-09-20T14:31:53;4.80;;;1.80;;
2930;SDS011;1475;51.454;7.150;2022-09-20T14:34:22;3.03;;;1.50;;
2930;SDS011;1475;51.454;7.150;2022-09-20T14:36:49;6.68;;;1.63;;
2930;SDS011;1475;51.454;7.150;2022-09-20T14:39:16;6.75;;;1.95;;
2930;SDS011;1475;51.454;7.150;2022-09-20T14:41:45;3.13;;;1.40;;
2930;SDS011;1475;51.454;7.150;2022-09-20T14:44:22;4.90;;;1.70;;
2930;SDS011;1475;51.454;7.150;2022-09-20T14:46:51;3.70;;;1.83;;
2930;SDS011;1475;51.454;7.150;2022-09-20T14:49:20;7.50;;;2.33;;
2930;SDS011;1475;51.454;7.150;2022-09-20T14:54:57;4.90;;;1.50;;
2930;SDS011;1475;51.454;7.150;2022-09-20T14:57:26;2.90;;;1.50;;
2930;SDS011;1475;51.454;7.150;2022-09-20T14:59:53;4.27;;;1.70;;
2930;SDS011;1475;51.454;7.150;2022-09-20T15:02:21;4.80;;;1.58;;
2930;SDS011;1475;51.454;7.150;2022-09-20T15:04:50;4.72;;;1.60;;
2930;SDS011;1475;51.454;7.150;2022-09-20T15:07:18;5.20;;;1.70;;
2930;SDS011;1475;51.454;7.150;2022-09-20T15:09:45;6.75;;;1.80;;
2930;SDS011;1475;51.454;7.150;2022-09-20T15:12:13;4.30;;;1.70;;
2930;SDS011;1475;51.454;7.150;2022-09-20T15:14:42;4.65;;;1.40;;
2930;SDS011;1475;51.454;7.150;2022-09-20T15:17:11;4.97;;;1.50;;
2930;SDS011;1475;51.454;7.150;2022-09-20T15:19:40;4.50;;;1.40;;
2930;SDS011;1475;51.454;7.150;2022-09-20T15:22:07;5.25;;;1.65;;
2930;SDS011;1475;51.454;7.150;2022-09-20T15:24:34;6.13;;;1.80;;
2930;SDS011;1475;51.454;7.150;2022-09-20T15:27:01;3.38;;;1.60;;
2930;SDS011;1475;51.454;7.150;2022-09-20T15:29:28;4.25;;;1.35;;
2930;SDS011;1475;51.454;7.150;2022-09-20T15:31:56;4.50;;;1.80;;
2930;SDS011;1475;51.454;7.150;2022-09-20T15:34:23;6.55;;;2.00;;
2930;SDS011;1475;51.454;7.150;2022-09-20T15:36:49;5.38;;;2.60;;
2930;SDS011;1475;51.454;7.150;2022-09-20T15:39:17;11.32;;;5.22;;
2930;SDS011;1475;51.454;7.150;2022-09-20T15:41:46;3.42;;;1.80;;
2930;SDS011;1475;51.454;7.150;2022-09-20T15:44:13;4.90;;;1.90;;
2930;SDS011;1475;51.454;7.150;2022-09-20T15:46:41;4.15;;;2.25;;
2930;SDS011;1475;51.454;7.150;2022-09-20T15:49:09;5.05;;;1.58;;
2930;SDS011;1475;51.454;7.150;2022-09-20T15:51:37;4.93;;;1.80;;
2930;SDS011;1475;51.454;7.150;2022-09-20T15:54:05;4.80;;;1.80;;
2930;SDS011;1475;51.454;7.150;2022-09-20T15:56:33;4.32;;;1.70;;
2930;SDS011;1475;51.454;7.150;2022-09-20T15:59:01;6.80;;;1.90;;
2930;SDS011;1475;51.454;7.150;2022-09-20T16:01:30;4.78;;;1.90;;
2930;SDS011;1475;51.454;7.150;2022-09-20T16:04:03;10.23;;;2.63;;
2930;SDS011;1475;51.454;7.150;2022-09-20T16:06:33;5.28;;;2.40;;
2930;SDS011;1475;51.454;7.150;2022-09-20T16:09:00;5.20;;;1.58;;
2930;SDS011;1475;51.454;7.150;2022-09-20T16:11:27;6.00;;;2.10;;
2930;SDS011;1475;51.454;7.150;2022-09-20T16:13:55;5.70;;;1.67;;
2930;SDS011;1475;51.454;7.150;2022-09-20T16:16:23;6.20;;;1.80;;
2930;SDS011;1475;51.454;7.150;2022-09-20T16:18:51;6.38;;;1.60;;
2930;SDS011;1475;51.454;7.150;2022-09-20T16:21:36;7.10;;;2.00;;
2930;SDS011;1475;51.454;7.150;2022-09-20T16:24:04;7.95;;;2.25;;
2930;SDS011;1475;51.454;7.150;2022-09-20T16:26:32;8.15;;;2.28;;
2930;SDS011;1475;51.454;7.150;2022-09-20T16:29:01;5.70;;;2.28;;
2930;SDS011;1475;51.454;7.150;2022-09-20T16:31:31;7.18;;;2.92;;
2930;SDS011;1475;51.454;7.150;2022-09-20T16:34:00;7.85;;;2.47;;
2930;SDS011;1475;51.454;7.150;2022-09-20T16:36:29;5.60;;;2.00;;
2930;SDS011;1475;51.454;7.150;2022-09-20T16:38:57;3.70;;;1.70;;
2930;SDS011;1475;51.454;7.150;2022-09-20T16:41:25;5.13;;;1.90;;
2930;SDS011;1475;51.454;7.150;2022-09-20T16:43:53;4.50;;;1.70;;
2930;SDS011;1475;51.454;7.150;2022-09-20T16:46:21;6.57;;;2.10;;
2930;SDS011;1475;51.454;7.150;2022-09-20T16:48:51;4.95;;;1.92;;
2930;SDS011;1475;51.454;7.150;2022-09-20T16:51:19;6.10;;;2.40;;
2930;SDS011;1475;51.454;7.150;2022-09-20T16:53:48;4.40;;;1.90;;
2930;SDS011;1475;51.454;7.150;2022-09-20T16:56:19;3.70;;;2.20;;